Mine La Motte, Missouri
Current Conditions -  °F | °C
As of 3:35 AM on Wednesday 22 Oct 2014 (Local Time) from KFAM Reporting Station
Clear Clear  
Wind Chill: 39°   Ceiling: Unl
Heat Index: 43°   Visibility: 10mi
Dew Point: 41°   Wind: 6mph
Humidity: 93%   Direction: 10°N
Pressure: 30.23"   Gusts: NA
Location:  37.4979°N, 90.375°W
Report Text: KFAM 220835Z AUTO 01005KT 10SM CLR 06/05 A3023 RMK AO1
Loading
Personal Weather Stations






























Interactive Weather Map
Tropical Storm Tracking
New forecast layout! Learn more

10-Day Weather Forecast

Advertisements
Track Severe Weather on mobile